createdAt,value
2019-03-29T00:00:48.032Z,11.33
2019-03-29T00:03:17.328Z,10.65
2019-03-29T00:05:46.559Z,10.08
2019-03-29T00:08:15.978Z,12.20
2019-03-29T00:10:45.176Z,10.48
2019-03-29T00:13:14.834Z,10.25
2019-03-29T00:15:44.406Z,13.43
2019-03-29T00:18:13.718Z,10.55
2019-03-29T00:20:44.079Z,10.68
2019-03-29T00:23:13.390Z,12.88
2019-03-29T00:25:42.629Z,12.60
2019-03-29T00:28:12.048Z,10.43
2019-03-29T00:30:41.354Z,11.10
2019-03-29T00:33:10.593Z,13.35
2019-03-29T00:35:41.614Z,11.48
2019-03-29T00:38:10.804Z,10.58
2019-03-29T00:40:40.031Z,10.68
2019-03-29T00:43:09.419Z,9.15
2019-03-29T00:45:38.649Z,12.37
2019-03-29T00:48:07.876Z,12.18
2019-03-29T00:50:56.506Z,12.60
2019-03-29T00:53:25.819Z,11.10
2019-03-29T00:55:55.174Z,11.15
2019-03-29T00:58:24.479Z,11.68
2019-03-29T01:00:54.905Z,9.95
2019-03-29T01:03:24.293Z,12.35
2019-03-29T01:05:53.529Z,12.43
2019-03-29T01:08:22.838Z,10.18
2019-03-29T01:10:52.068Z,11.30
2019-03-29T01:13:33.955Z,12.25
2019-03-29T01:16:03.275Z,11.68
2019-03-29T01:18:32.509Z,12.58
2019-03-29T01:21:12.166Z,12.90
2019-03-29T01:23:41.424Z,11.75
2019-03-29T01:26:10.648Z,12.65
2019-03-29T01:28:40.234Z,13.10
2019-03-29T01:31:09.468Z,14.30
2019-03-29T01:33:38.753Z,12.65
2019-03-29T01:36:08.081Z,12.60
2019-03-29T01:38:37.439Z,12.65
2019-03-29T01:41:06.666Z,12.30
2019-03-29T01:43:36.036Z,11.35
2019-03-29T01:46:05.622Z,13.35
2019-03-29T01:48:34.934Z,13.28
2019-03-29T01:51:04.225Z,12.37
2019-03-29T01:53:33.518Z,14.00
2019-03-29T01:56:02.752Z,14.63
2019-03-29T01:58:31.983Z,14.98
2019-03-29T02:01:01.289Z,13.88
2019-03-29T02:03:30.604Z,12.05
2019-03-29T02:05:59.913Z,12.78
2019-03-29T02:08:35.668Z,14.43
2019-03-29T02:11:00.188Z,14.15
2019-03-29T02:13:29.429Z,16.87
2019-03-29T02:15:58.666Z,14.25
2019-03-29T02:18:27.889Z,14.05
2019-03-29T02:20:57.132Z,15.05
2019-03-29T02:23:26.436Z,13.38
2019-03-29T02:25:55.908Z,12.75
2019-03-29T02:28:25.207Z,14.93
2019-03-29T02:30:54.504Z,15.50
2019-03-29T02:33:23.832Z,16.02
2019-03-29T02:35:53.064Z,13.10
2019-03-29T02:38:23.537Z,17.05
2019-03-29T02:40:53.309Z,17.10
2019-03-29T02:43:22.531Z,16.32
2019-03-29T02:45:51.825Z,20.45
2019-03-29T02:48:21.097Z,14.70
2019-03-29T02:50:50.279Z,16.10
2019-03-29T02:53:19.499Z,17.55
2019-03-29T02:55:48.676Z,15.63
2019-03-29T02:58:17.960Z,14.70
2019-03-29T03:00:47.998Z,15.85
2019-03-29T03:03:17.860Z,16.90
2019-03-29T03:05:47.220Z,15.83
2019-03-29T03:08:16.465Z,15.23
2019-03-29T03:10:45.766Z,14.58
2019-03-29T03:13:15.031Z,16.52
2019-03-29T03:15:44.293Z,16.73
2019-03-29T03:18:13.669Z,15.53
2019-03-29T03:20:42.879Z,16.42
2019-03-29T03:23:12.152Z,17.17
2019-03-29T03:25:41.368Z,16.52
2019-03-29T03:28:10.697Z,17.25
2019-03-29T03:30:40.119Z,17.27
2019-03-29T03:33:09.454Z,15.70
2019-03-29T03:35:38.807Z,16.10
2019-03-29T03:38:08.105Z,15.38
2019-03-29T03:40:37.372Z,16.75
2019-03-29T03:43:06.790Z,19.27
2019-03-29T03:45:36.047Z,19.50
2019-03-29T03:48:05.258Z,16.37
2019-03-29T03:50:41.443Z,17.42
2019-03-29T03:53:11.927Z,15.28
2019-03-29T03:55:41.806Z,16.02
2019-03-29T03:58:12.707Z,16.32
2019-03-29T04:00:53.368Z,15.38
2019-03-29T04:03:22.778Z,15.28
2019-03-29T04:05:52.089Z,13.60
2019-03-29T04:08:21.397Z,13.28
2019-03-29T04:10:50.704Z,14.33
2019-03-29T06:25:25.361Z,17.00
2019-03-29T06:28:07.380Z,19.00
2019-03-29T06:30:36.556Z,19.42
2019-03-29T06:33:05.796Z,22.93
2019-03-29T06:35:36.675Z,23.62
2019-03-29T06:38:06.506Z,22.62
2019-03-29T06:40:35.693Z,17.37
2019-03-29T06:43:04.910Z,17.37
2019-03-29T06:45:46.851Z,17.32
2019-03-29T06:48:05.075Z,18.15
2019-03-29T06:50:34.374Z,17.32
2019-03-29T06:53:03.846Z,17.45
2019-03-29T06:55:33.090Z,23.73
2019-03-29T06:58:02.359Z,18.25
2019-03-29T07:00:31.554Z,17.02
2019-03-29T07:03:00.726Z,20.37
2019-03-29T07:05:29.877Z,17.67
2019-03-29T07:07:59.040Z,20.05
2019-03-29T07:10:28.194Z,26.02
2019-03-29T07:12:57.457Z,19.57
2019-03-29T07:15:26.681Z,19.27
2019-03-29T07:17:55.867Z,19.73
2019-03-29T07:20:25.305Z,18.82
2019-03-29T07:23:14.076Z,15.85
2019-03-29T07:25:43.390Z,22.50
2019-03-29T07:28:12.557Z,21.68
2019-03-29T07:30:41.801Z,23.07
2019-03-29T07:33:11.042Z,19.27
2019-03-29T07:35:40.508Z,16.37
2019-03-29T07:38:09.993Z,20.85
2019-03-29T07:40:39.163Z,15.43
2019-03-29T07:43:08.862Z,19.75
2019-03-29T07:45:50.471Z,19.27
2019-03-29T07:48:19.665Z,19.92
2019-03-29T07:50:48.840Z,21.65
2019-03-29T07:53:18.016Z,16.07
2019-03-29T07:55:47.253Z,22.10
2019-03-29T07:58:16.404Z,15.28
2019-03-29T08:00:45.598Z,12.53
2019-03-29T08:03:14.743Z,13.60
2019-03-29T08:05:45.171Z,11.00
2019-03-29T08:08:24.006Z,9.55
2019-03-29T08:10:46.549Z,13.62
2019-03-29T08:13:16.202Z,12.28
2019-03-29T08:15:46.028Z,10.60
2019-03-29T08:18:15.240Z,11.30
2019-03-29T08:20:44.887Z,11.60
2019-03-29T08:23:28.766Z,12.65
2019-03-29T08:25:57.353Z,13.68
2019-03-29T08:28:26.532Z,12.15
2019-03-29T08:30:55.762Z,11.25
2019-03-29T08:33:24.935Z,14.30
2019-03-29T08:35:54.122Z,10.65
2019-03-29T08:38:23.277Z,13.00
2019-03-29T08:40:52.515Z,10.40
2019-03-29T08:43:21.747Z,12.70
2019-03-29T08:45:50.970Z,13.22
2019-03-29T08:48:20.159Z,11.33
2019-03-29T08:50:50.934Z,9.33
2019-03-29T08:53:20.174Z,11.03
2019-03-29T08:55:50.308Z,11.63
2019-03-29T08:58:40.744Z,11.35
2019-03-29T09:01:10.001Z,10.05
2019-03-29T09:03:39.277Z,14.18
2019-03-29T09:06:12.501Z,14.30
2019-03-29T09:08:42.007Z,12.88
2019-03-29T09:11:11.312Z,18.20
2019-03-29T09:13:40.596Z,9.85
2019-03-29T09:16:10.203Z,9.55
2019-03-29T09:18:39.642Z,13.08
2019-03-29T09:21:08.923Z,11.35
2019-03-29T09:23:39.903Z,10.85
2019-03-29T09:26:10.371Z,11.00
2019-03-29T09:28:40.788Z,13.20
2019-03-29T09:31:10.357Z,11.95
2019-03-29T09:33:39.812Z,12.28
2019-03-29T09:36:11.398Z,11.93
2019-03-29T09:38:43.551Z,12.33
2019-03-29T09:41:11.898Z,11.43
2019-03-29T09:43:41.257Z,11.03
2019-03-29T09:46:10.421Z,12.40
2019-03-29T09:48:39.739Z,13.75
2019-03-29T09:51:08.969Z,9.80
2019-03-29T09:53:41.154Z,11.40
2019-03-29T09:56:09.441Z,12.33
2019-03-29T09:58:38.786Z,13.13
2019-03-29T10:01:08.406Z,9.08
2019-03-29T10:03:37.781Z,9.38
2019-03-29T10:06:07.022Z,8.35
2019-03-29T10:08:36.340Z,11.30
2019-03-29T10:11:05.755Z,9.93
2019-03-29T10:13:35.084Z,9.78
2019-03-29T10:16:04.275Z,10.08
2019-03-29T10:18:36.397Z,9.13
2019-03-29T10:21:06.679Z,9.88
2019-03-29T10:23:36.125Z,9.85
2019-03-29T10:26:05.446Z,8.30
2019-03-29T10:28:34.805Z,9.53
2019-03-29T10:31:04.123Z,8.45
2019-03-29T10:33:33.370Z,8.35
2019-03-29T10:36:02.634Z,8.40
2019-03-29T10:38:31.995Z,8.65
2019-03-29T10:41:01.320Z,9.60
2019-03-29T10:43:31.529Z,11.20
2019-03-29T10:46:00.712Z,8.63
2019-03-29T10:48:29.925Z,9.15
2019-03-29T10:50:59.103Z,9.63
2019-03-29T10:53:28.984Z,8.65
2019-03-29T10:55:58.569Z,9.18
2019-03-29T10:58:27.783Z,9.93
2019-03-29T11:00:56.959Z,10.43
2019-03-29T11:03:28.648Z,8.45
2019-03-29T11:06:04.049Z,8.65
2019-03-29T11:08:33.446Z,6.90
2019-03-29T11:11:02.735Z,7.78
2019-03-29T11:13:32.177Z,7.83
2019-03-29T11:16:01.474Z,8.60
2019-03-29T11:18:30.846Z,8.15
2019-03-29T11:21:00.000Z,7.78
2019-03-29T11:23:29.456Z,8.78
2019-03-29T11:25:58.612Z,8.60
2019-03-29T11:28:27.764Z,8.30
2019-03-29T11:30:57.008Z,11.10
2019-03-29T11:33:26.249Z,8.43
2019-03-29T11:35:55.478Z,8.90
2019-03-29T11:38:24.665Z,8.55
2019-03-29T11:40:53.881Z,6.45
2019-03-29T11:43:27.186Z,8.58
2019-03-29T11:45:54.006Z,10.80
2019-03-29T11:48:23.238Z,7.87
2019-03-29T11:50:52.406Z,9.13
2019-03-29T11:53:21.640Z,10.05
2019-03-29T11:55:50.878Z,9.50
2019-03-29T11:58:20.101Z,10.32
2019-03-29T12:00:49.333Z,10.75
2019-03-29T12:03:31.544Z,10.72
2019-03-29T12:06:00.795Z,11.78
2019-03-29T12:08:30.101Z,12.15
2019-03-29T12:10:59.341Z,13.48
2019-03-29T12:13:40.370Z,8.35
2019-03-29T12:15:59.491Z,10.38
2019-03-29T12:18:28.734Z,10.68
2019-03-29T12:20:57.895Z,10.38
2019-03-29T12:23:39.820Z,9.50
2019-03-29T12:26:09.986Z,11.55
2019-03-29T12:28:39.296Z,9.68
2019-03-29T12:31:08.445Z,10.00
2019-03-29T12:33:37.804Z,9.88
2019-03-29T12:36:07.114Z,11.97
2019-03-29T12:38:36.282Z,9.95
2019-03-29T12:41:05.432Z,9.80
2019-03-29T12:43:34.668Z,12.03
2019-03-29T12:46:03.976Z,10.63
2019-03-29T12:48:33.140Z,10.90
2019-03-29T12:51:02.326Z,10.50
2019-03-29T12:53:31.690Z,9.20
2019-03-29T12:56:00.866Z,10.82
2019-03-29T12:58:30.303Z,13.40
2019-03-29T13:00:59.487Z,9.25
2019-03-29T13:03:28.791Z,11.03
2019-03-29T13:05:58.106Z,10.18
2019-03-29T13:08:27.274Z,11.00
2019-03-29T13:10:56.515Z,12.58
2019-03-29T13:13:26.742Z,9.40
2019-03-29T13:15:56.120Z,9.38
2019-03-29T13:18:25.481Z,12.73
2019-03-29T13:20:54.718Z,10.25
2019-03-29T13:23:23.883Z,11.25
2019-03-29T13:25:53.122Z,13.25
2019-03-29T13:28:22.802Z,13.43
2019-03-29T13:30:51.973Z,11.40
2019-03-29T13:33:21.146Z,9.33
2019-03-29T13:35:50.316Z,12.68
2019-03-29T13:38:20.590Z,11.40
2019-03-29T13:40:50.108Z,13.00
2019-03-29T13:43:19.279Z,9.13
2019-03-29T13:45:48.607Z,8.55
2019-03-29T13:48:18.251Z,8.53
2019-03-29T13:50:47.637Z,8.93
2019-03-29T13:53:17.975Z,12.45
2019-03-29T13:55:47.176Z,9.33
2019-03-29T13:58:16.354Z,12.35
2019-03-29T14:00:45.519Z,16.00
2019-03-29T14:03:14.722Z,10.80
2019-03-29T14:05:43.882Z,10.75
2019-03-29T14:08:13.121Z,10.30
2019-03-29T14:10:42.276Z,8.13
2019-03-29T14:13:11.648Z,9.40
2019-03-29T14:15:40.939Z,9.50
2019-03-29T14:18:10.228Z,8.88
2019-03-29T14:20:39.440Z,9.05
2019-03-29T14:23:08.701Z,11.33
2019-03-29T14:25:37.934Z,9.43
2019-03-29T14:28:07.110Z,10.95
2019-03-29T14:30:36.269Z,11.85
2019-03-29T14:33:05.456Z,11.22
2019-03-29T14:35:34.703Z,10.50
2019-03-29T14:38:03.960Z,9.68
2019-03-29T14:40:33.325Z,9.60
2019-03-29T14:43:02.596Z,9.05
2019-03-29T14:45:31.897Z,8.78
2019-03-29T14:48:01.331Z,10.23
2019-03-29T14:50:30.602Z,8.00
2019-03-29T14:52:59.877Z,10.13
2019-03-29T14:55:41.713Z,9.48
2019-03-29T14:58:10.919Z,12.70
2019-03-29T15:00:42.348Z,8.13
2019-03-29T15:03:11.946Z,9.63
2019-03-29T15:05:41.527Z,8.10
2019-03-29T15:08:10.795Z,8.03
2019-03-29T15:10:52.774Z,11.83
2019-03-29T15:13:22.057Z,9.48
2019-03-29T15:15:53.528Z,12.25
2019-03-29T15:18:22.255Z,9.23
2019-03-29T15:20:53.692Z,8.25
2019-03-29T15:23:22.350Z,7.87
2019-03-29T15:25:51.578Z,8.53
2019-03-29T15:28:20.819Z,6.20
2019-03-29T15:30:52.356Z,8.25
2019-03-29T15:33:21.017Z,7.28
2019-03-29T15:35:50.211Z,10.78
2019-03-29T15:38:19.494Z,8.88
2019-03-29T15:40:48.756Z,9.38
2019-03-29T15:43:17.998Z,9.35
2019-03-29T15:45:47.195Z,12.10
2019-03-29T15:48:16.501Z,11.20
2019-03-29T15:50:45.722Z,7.53
2019-03-29T15:53:14.884Z,8.38
2019-03-29T15:55:44.120Z,13.03
2019-03-29T15:58:13.348Z,10.88
2019-03-29T16:00:42.697Z,11.05
2019-03-29T16:03:11.987Z,10.80
2019-03-29T16:05:42.691Z,9.70
2019-03-29T16:08:12.279Z,9.75
2019-03-29T16:10:41.640Z,10.48
2019-03-29T16:13:11.095Z,12.15
2019-03-29T16:15:41.529Z,14.50
2019-03-29T16:18:10.917Z,11.68
2019-03-29T16:20:40.286Z,12.47
2019-03-29T16:23:09.779Z,11.93
2019-03-29T16:25:39.010Z,9.50
2019-03-29T16:28:08.264Z,12.65
2019-03-29T16:30:37.485Z,10.70
2019-03-29T16:33:06.660Z,13.08
2019-03-29T16:35:36.036Z,12.45
2019-03-29T16:38:05.395Z,12.28
2019-03-29T16:40:34.634Z,16.48
2019-03-29T16:43:03.834Z,11.20
2019-03-29T16:45:46.584Z,12.80
2019-03-29T16:48:06.607Z,14.60
2019-03-29T16:50:35.297Z,15.10
2019-03-29T16:53:04.832Z,14.35
2019-03-29T16:55:34.143Z,12.35
2019-03-29T16:58:03.433Z,12.53
2019-03-29T17:00:32.757Z,16.62
2019-03-29T17:03:02.097Z,13.00
2019-03-29T17:05:31.447Z,14.30
2019-03-29T17:08:00.815Z,15.45
2019-03-29T17:10:42.870Z,13.58
2019-03-29T17:13:12.105Z,13.18
2019-03-29T17:15:41.337Z,16.62
2019-03-29T17:18:10.567Z,14.87
2019-03-29T17:20:39.745Z,13.72
2019-03-29T17:23:08.898Z,15.10
2019-03-29T17:25:38.100Z,23.22
2019-03-29T17:28:07.453Z,18.80
2019-03-29T17:30:40.319Z,18.82
2019-03-29T17:33:10.451Z,18.23
2019-03-29T17:35:39.839Z,17.73
2019-03-29T17:38:09.162Z,19.48
2019-03-29T17:40:38.400Z,19.82
2019-03-29T17:43:07.845Z,21.48
2019-03-29T17:45:56.674Z,15.70
2019-03-29T17:48:25.904Z,18.73
2019-03-29T17:51:14.580Z,28.65
2019-03-29T17:53:43.878Z,43.15
2019-03-29T17:56:13.198Z,37.98
2019-03-29T17:58:42.443Z,40.35
2019-03-29T18:01:11.703Z,28.50
2019-03-29T18:03:40.947Z,33.28
2019-03-29T18:06:10.096Z,33.50
2019-03-29T18:08:39.278Z,41.80
2019-03-29T18:11:08.542Z,35.03
2019-03-29T18:13:37.878Z,30.15
2019-03-29T18:16:07.173Z,24.15
2019-03-29T18:18:36.450Z,25.95
2019-03-29T18:21:05.720Z,31.93
2019-03-29T18:23:34.872Z,26.87
2019-03-29T18:26:04.116Z,25.00
2019-03-29T18:28:33.582Z,25.17
2019-03-29T18:31:02.875Z,21.55
2019-03-29T18:33:32.117Z,29.02
2019-03-29T18:36:01.363Z,18.35
2019-03-29T18:38:30.798Z,18.98
2019-03-29T18:41:00.021Z,22.70
2019-03-29T18:43:29.257Z,26.30
2019-03-29T18:45:58.548Z,30.40
2019-03-29T18:48:27.776Z,23.67
2019-03-29T18:50:56.935Z,21.55
2019-03-29T18:53:26.219Z,26.68
2019-03-29T18:55:55.577Z,18.82
2019-03-29T18:58:25.134Z,26.65
2019-03-29T19:00:54.725Z,20.80
2019-03-29T19:03:24.109Z,24.57
2019-03-29T19:05:53.579Z,18.30
2019-03-29T19:08:22.811Z,22.45
2019-03-29T19:10:52.257Z,23.22
2019-03-29T19:13:21.770Z,21.93
2019-03-29T19:15:51.022Z,29.77
2019-03-29T19:18:20.219Z,26.23
2019-03-29T19:20:49.692Z,26.20
2019-03-29T19:23:19.147Z,26.55
2019-03-29T19:25:48.375Z,22.85
2019-03-29T19:28:17.644Z,21.02
2019-03-29T19:30:47.005Z,23.55
2019-03-29T19:33:16.368Z,21.57
2019-03-29T19:35:45.601Z,25.30
2019-03-29T19:38:14.784Z,23.00
2019-03-29T19:40:44.112Z,26.75
2019-03-29T19:43:13.312Z,24.45
2019-03-29T19:45:42.692Z,26.45
2019-03-29T19:48:12.031Z,22.70
2019-03-29T19:50:41.409Z,26.85
2019-03-29T19:53:10.692Z,30.10
2019-03-29T19:55:40.010Z,25.75
2019-03-29T19:58:30.266Z,26.27
2019-03-29T20:00:59.744Z,33.65
2019-03-29T20:03:29.005Z,27.40
2019-03-29T20:05:58.387Z,25.17
2019-03-29T20:08:27.663Z,30.85
2019-03-29T20:10:57.004Z,25.65
2019-03-29T20:13:26.280Z,28.38
2019-03-29T20:15:55.565Z,27.37
2019-03-29T20:18:24.823Z,26.55
2019-03-29T20:20:53.976Z,34.90
2019-03-29T20:23:23.171Z,30.17
2019-03-29T20:25:52.375Z,30.02
2019-03-29T20:28:21.694Z,28.50
2019-03-29T20:30:50.978Z,27.67
2019-03-29T20:33:20.334Z,28.25
2019-03-29T20:35:49.625Z,27.60
2019-03-29T20:38:39.452Z,27.73
2019-03-29T20:41:08.807Z,24.30
2019-03-29T20:43:38.112Z,29.85
2019-03-29T20:46:07.448Z,27.90
2019-03-29T20:48:36.710Z,29.52
2019-03-29T20:51:05.925Z,24.57
2019-03-29T20:53:35.237Z,27.87
2019-03-29T20:56:06.522Z,24.43
2019-03-29T20:58:35.385Z,28.38
2019-03-29T21:01:04.812Z,28.62
2019-03-29T21:03:34.065Z,24.45
2019-03-29T21:06:03.282Z,32.23
2019-03-29T21:08:32.533Z,29.85
2019-03-29T21:11:01.937Z,26.87
2019-03-29T21:13:31.290Z,28.75
2019-03-29T21:16:00.539Z,29.82
2019-03-29T21:18:29.813Z,30.12
2019-03-29T21:20:59.168Z,30.17
2019-03-29T21:23:29.502Z,28.77
2019-03-29T21:25:59.019Z,28.25
2019-03-29T21:28:29.325Z,26.80
2019-03-29T21:30:58.560Z,27.58
2019-03-29T21:33:28.982Z,31.07
2019-03-29T21:35:58.331Z,26.48
2019-03-29T21:38:27.610Z,27.85
2019-03-29T21:40:56.901Z,29.00
2019-03-29T21:43:26.191Z,25.75
2019-03-29T21:45:55.507Z,28.07
2019-03-29T21:48:28.927Z,27.05
2019-03-29T21:50:55.715Z,29.23
2019-03-29T21:53:24.953Z,25.60
2019-03-29T21:55:54.161Z,27.65
2019-03-29T21:58:23.547Z,37.30
2019-03-29T22:00:52.889Z,30.90
2019-03-29T22:03:22.134Z,28.83
2019-03-29T22:05:51.407Z,28.90
2019-03-29T22:08:20.776Z,28.50
2019-03-29T22:10:50.136Z,28.05
2019-03-29T22:13:19.426Z,25.37
2019-03-29T22:15:48.663Z,28.83
2019-03-29T22:18:17.886Z,30.02
2019-03-29T22:20:48.332Z,28.77
2019-03-29T22:23:17.602Z,31.07
2019-03-29T22:25:47.190Z,29.35
2019-03-29T22:28:16.509Z,27.32
2019-03-29T22:30:59.333Z,27.93
2019-03-29T22:33:28.693Z,28.40
2019-03-29T22:35:57.988Z,28.62
2019-03-29T22:38:27.269Z,30.85
2019-03-29T22:40:56.606Z,30.30
2019-03-29T22:43:25.951Z,27.75
2019-03-29T22:45:55.235Z,24.25
2019-03-29T22:48:24.622Z,29.48
2019-03-29T22:50:53.919Z,28.20
2019-03-29T22:53:23.174Z,28.87
2019-03-29T22:55:52.467Z,30.12
2019-03-29T22:58:22.915Z,26.82
2019-03-29T23:00:53.193Z,29.70
2019-03-29T23:03:22.738Z,25.88
2019-03-29T23:05:52.011Z,26.75
2019-03-29T23:08:21.290Z,28.70
2019-03-29T23:10:50.691Z,28.52
2019-03-29T23:13:20.102Z,28.40
2019-03-29T23:15:49.434Z,26.37
2019-03-29T23:18:31.567Z,26.62
2019-03-29T23:21:00.934Z,29.72
2019-03-29T23:23:30.448Z,25.97
2019-03-29T23:25:59.803Z,27.93
2019-03-29T23:28:29.335Z,26.77
2019-03-29T23:30:58.883Z,25.85
2019-03-29T23:33:28.529Z,26.30
2019-03-29T23:35:57.889Z,27.90
2019-03-29T23:38:27.233Z,26.48
2019-03-29T23:40:56.778Z,26.33
2019-03-29T23:43:26.310Z,28.75
2019-03-29T23:45:55.677Z,25.57
2019-03-29T23:48:25.012Z,26.20
2019-03-29T23:50:54.368Z,23.42
2019-03-29T23:53:23.698Z,28.45
2019-03-29T23:55:53.132Z,23.30
2019-03-29T23:58:22.400Z,24.02
